createdAt,value
2023-04-21T00:00:51.196Z,18.60
2023-04-21T00:03:54.950Z,17.40
2023-04-21T00:09:58.300Z,20.10
2023-04-21T00:13:00.046Z,15.50
2023-04-21T00:16:02.584Z,16.80
2023-04-21T00:19:06.401Z,18.70
2023-04-21T00:22:14.117Z,17.40
2023-04-21T00:25:15.775Z,16.60
2023-04-21T00:28:17.483Z,19.00
2023-04-21T00:31:19.199Z,19.20
2023-04-21T00:34:20.889Z,15.00
2023-04-21T00:37:22.563Z,15.40
2023-04-21T00:40:24.673Z,18.40
2023-04-21T00:43:26.495Z,18.00
2023-04-21T00:46:29.560Z,21.80
2023-04-21T00:49:31.936Z,18.40
2023-04-21T00:52:34.625Z,17.60
2023-04-21T00:55:36.510Z,16.40
2023-04-21T00:58:42.023Z,16.60
2023-04-21T01:01:43.876Z,19.70
2023-04-21T01:04:45.858Z,16.00
2023-04-21T01:07:48.854Z,18.90
2023-04-21T01:10:50.550Z,18.60
2023-04-21T01:13:53.898Z,20.60
2023-04-21T01:16:56.935Z,17.80
2023-04-21T01:20:03.695Z,15.80
2023-04-21T01:23:06.460Z,18.50
2023-04-21T01:26:08.807Z,17.30
2023-04-21T01:29:11.602Z,19.20
2023-04-21T01:32:18.511Z,15.70
2023-04-21T01:35:20.669Z,18.10
2023-04-21T01:38:22.781Z,14.30
2023-04-21T01:41:25.294Z,13.40
2023-04-21T01:44:29.392Z,17.70
2023-04-21T01:47:33.230Z,19.60
2023-04-21T01:50:35.181Z,18.20
2023-04-21T01:53:37.061Z,15.40
2023-04-21T01:56:38.859Z,16.70
2023-04-21T01:59:40.703Z,17.50
2023-04-21T02:02:42.636Z,13.80
2023-04-21T02:05:44.538Z,18.80
2023-04-21T02:08:46.313Z,18.80
2023-04-21T02:11:48.058Z,17.40
2023-04-21T02:14:50.177Z,16.80
2023-04-21T02:17:53.220Z,16.40
2023-04-21T02:20:55.874Z,17.70
2023-04-21T02:23:57.976Z,17.20
2023-04-21T02:27:01.551Z,18.80
2023-04-21T02:30:03.793Z,16.10
2023-04-21T02:33:05.531Z,16.90
2023-04-21T02:36:07.465Z,16.10
2023-04-21T02:39:09.210Z,17.60
2023-04-21T02:42:13.047Z,18.50
2023-04-21T02:45:14.980Z,19.20
2023-04-21T02:48:22.217Z,14.70
2023-04-21T02:51:24.080Z,17.00
2023-04-21T02:54:25.793Z,15.50
2023-04-21T02:57:27.476Z,17.30
2023-04-21T03:00:29.201Z,13.50
2023-04-21T03:03:32.114Z,16.30
2023-04-21T03:06:33.995Z,14.70
2023-04-21T03:09:35.723Z,15.40
2023-04-21T03:12:37.429Z,15.30
2023-04-21T03:15:39.109Z,14.30
2023-04-21T03:18:40.905Z,17.10
2023-04-21T03:21:42.576Z,13.50
2023-04-21T03:24:44.280Z,14.80
2023-04-21T03:27:46.015Z,16.00
2023-04-21T03:30:47.831Z,18.40
2023-04-21T03:33:49.625Z,17.00
2023-04-21T03:36:51.446Z,12.80
2023-04-21T03:39:53.239Z,15.50
2023-04-21T03:42:55.026Z,17.70
2023-04-21T03:45:56.869Z,15.10
2023-04-21T03:48:58.554Z,15.20
2023-04-21T03:52:00.430Z,13.40
2023-04-21T03:55:02.250Z,15.60
2023-04-21T03:58:03.946Z,15.20
2023-04-21T04:01:06.430Z,15.80
2023-04-21T04:04:08.830Z,14.60
2023-04-21T04:07:10.633Z,17.40
2023-04-21T04:10:12.421Z,16.50
2023-04-21T04:13:14.105Z,15.60
2023-04-21T04:16:15.842Z,15.00
2023-04-21T04:19:17.867Z,18.70
2023-04-21T04:25:21.556Z,13.30
2023-04-21T04:28:23.257Z,14.70
2023-04-21T04:31:25.029Z,17.20
2023-04-21T04:34:26.672Z,13.40
2023-04-21T04:37:28.338Z,14.90
2023-04-21T04:40:30.081Z,14.60
2023-04-21T04:43:36.353Z,17.10
2023-04-21T04:46:38.863Z,17.00
2023-04-21T04:49:40.640Z,14.40
2023-04-21T04:52:46.197Z,19.30
2023-04-21T04:55:47.855Z,18.10
2023-04-21T04:58:49.611Z,14.30
2023-04-21T05:01:51.893Z,15.70
2023-04-21T05:04:53.695Z,16.40
2023-04-21T05:07:55.646Z,15.20
2023-04-21T05:10:57.375Z,16.80
2023-04-21T05:13:59.100Z,17.10
2023-04-21T05:17:01.009Z,16.70
2023-04-21T05:20:07.038Z,19.00
2023-04-21T05:23:09.272Z,17.50
2023-04-21T05:29:12.642Z,23.90
2023-04-21T05:32:14.797Z,16.60
2023-04-21T05:38:18.312Z,15.00
2023-04-21T05:41:21.859Z,17.80
2023-04-21T05:44:24.803Z,19.30
2023-04-21T05:47:26.549Z,19.10
2023-04-21T05:50:33.324Z,15.80
2023-04-21T05:53:35.058Z,15.20
2023-04-21T05:56:36.725Z,17.40
2023-04-21T05:59:38.725Z,13.50
2023-04-21T06:02:40.612Z,12.10
2023-04-21T06:05:42.413Z,13.50
2023-04-21T06:08:44.153Z,19.30
2023-04-21T06:11:45.974Z,13.60
2023-04-21T06:14:47.684Z,14.50
2023-04-21T06:17:54.024Z,15.30
2023-04-21T06:20:56.043Z,15.60
2023-04-21T06:23:58.016Z,17.20
2023-04-21T06:26:59.784Z,14.30
2023-04-21T06:30:01.506Z,15.80
2023-04-21T06:33:03.997Z,12.50
2023-04-21T06:36:06.039Z,16.70
2023-04-21T06:39:08.288Z,17.50
2023-04-21T06:42:10.304Z,17.60
2023-04-21T06:45:18.569Z,15.00
2023-04-21T06:48:20.369Z,15.10
2023-04-21T06:51:22.215Z,18.60
2023-04-21T06:54:24.668Z,11.80
2023-04-21T07:00:28.374Z,13.60
2023-04-21T07:03:30.274Z,15.00
2023-04-21T07:06:32.314Z,15.70
2023-04-21T07:09:34.182Z,12.80
2023-04-21T07:12:36.031Z,14.80
2023-04-21T07:15:37.966Z,11.20
2023-04-21T07:18:41.264Z,13.40
2023-04-21T07:21:43.110Z,10.80
2023-04-21T07:24:44.888Z,14.50
2023-04-21T07:27:46.657Z,11.40
2023-04-21T07:30:48.532Z,14.30
2023-04-21T07:33:50.963Z,10.40
2023-04-21T07:36:55.421Z,10.80
2023-04-21T07:39:57.337Z,11.00
2023-04-21T07:42:59.234Z,10.10
2023-04-21T07:46:01.074Z,9.00
2023-04-21T07:49:04.125Z,7.70
2023-04-21T07:52:06.200Z,12.00
2023-04-21T07:55:08.307Z,14.40
2023-04-21T07:58:11.252Z,10.20
2023-04-21T08:01:13.588Z,10.20
2023-04-21T08:04:17.983Z,9.50
2023-04-21T08:07:20.297Z,9.30
2023-04-21T08:10:22.237Z,9.10
2023-04-21T08:13:24.855Z,10.50
2023-04-21T08:16:27.958Z,8.70
2023-04-21T08:19:30.088Z,10.50
2023-04-21T08:22:31.885Z,7.60
2023-04-21T08:25:33.779Z,8.20
2023-04-21T08:28:37.831Z,8.20
2023-04-21T08:31:39.878Z,7.80
2023-04-21T08:34:42.241Z,9.80
2023-04-21T08:37:45.049Z,9.80
2023-04-21T08:40:47.328Z,9.60
2023-04-21T08:43:49.196Z,8.00
2023-04-21T08:46:51.201Z,9.10
2023-04-21T08:49:53.755Z,7.50
2023-04-21T08:52:56.126Z,7.50
2023-04-21T08:56:10.159Z,7.50
2023-04-21T08:59:12.911Z,6.90
2023-04-21T09:02:18.306Z,8.00
2023-04-21T09:05:25.599Z,7.30
2023-04-21T09:08:29.766Z,6.90
2023-04-21T09:11:33.979Z,6.40
2023-04-21T09:14:35.771Z,8.70
2023-04-21T09:17:37.971Z,8.20
2023-04-21T09:23:46.325Z,9.00
2023-04-21T09:26:51.639Z,6.20
2023-04-21T09:29:53.532Z,5.80
2023-04-21T09:32:59.788Z,7.40
2023-04-21T09:36:02.587Z,8.70
2023-04-21T09:42:11.458Z,7.20
2023-04-21T09:45:29.032Z,6.60
2023-04-21T09:48:36.404Z,6.70
2023-04-21T09:52:06.054Z,7.40
2023-04-21T09:55:03.663Z,8.50
2023-04-21T09:58:06.976Z,8.50
2023-04-21T10:01:09.246Z,8.00
2023-04-21T10:04:11.753Z,6.30
2023-04-21T10:07:17.405Z,9.20
2023-04-21T10:10:28.019Z,7.70
2023-04-21T10:13:30.933Z,5.90
2023-04-21T10:16:37.706Z,5.70
2023-04-21T10:19:56.651Z,7.40
2023-04-21T10:22:58.826Z,6.80
2023-04-21T10:26:03.062Z,8.00
2023-04-21T10:29:09.097Z,6.80
2023-04-21T10:32:11.343Z,8.70
2023-04-21T10:35:24.124Z,7.30
2023-04-21T10:38:40.612Z,5.90
2023-04-21T10:41:43.624Z,7.90
2023-04-21T10:45:00.931Z,6.40
2023-04-21T10:48:13.223Z,7.50
2023-04-21T10:54:16.965Z,9.90
2023-04-21T11:00:23.781Z,5.80
2023-04-21T11:03:34.127Z,8.60
2023-04-21T11:06:36.078Z,17.00
2023-04-21T11:09:39.764Z,10.60
2023-04-21T11:12:41.654Z,8.00
2023-04-21T11:15:56.840Z,6.40
2023-04-21T11:18:58.709Z,7.10
2023-04-21T11:22:00.705Z,6.50
2023-04-21T11:25:03.507Z,11.20
2023-04-21T11:28:05.747Z,9.50
2023-04-21T11:31:08.005Z,6.00
2023-04-21T11:34:09.979Z,7.70
2023-04-21T11:37:16.933Z,7.40
2023-04-21T11:40:18.843Z,8.50
2023-04-21T11:43:21.238Z,4.90
2023-04-21T11:46:27.417Z,6.40
2023-04-21T11:49:29.912Z,7.10
2023-04-21T11:52:33.755Z,7.00
2023-04-21T11:55:36.532Z,8.00
2023-04-21T11:58:39.228Z,6.20
2023-04-21T12:01:50.037Z,7.10
2023-04-21T12:05:08.998Z,6.30
2023-04-21T12:08:15.685Z,4.90
2023-04-21T12:11:17.635Z,6.00
2023-04-21T12:14:21.684Z,7.00
2023-04-21T12:17:23.461Z,4.80
2023-04-21T12:20:29.019Z,5.50
2023-04-21T12:23:32.270Z,5.70
2023-04-21T12:26:34.175Z,6.50
2023-04-21T12:29:37.309Z,8.70
2023-04-21T12:32:39.458Z,6.20
2023-04-21T12:35:41.334Z,5.80
2023-04-21T12:38:44.010Z,4.80
2023-04-21T12:41:47.047Z,6.60
2023-04-21T12:44:49.404Z,5.80
2023-04-21T12:47:51.346Z,5.00
2023-04-21T12:53:54.967Z,6.00
2023-04-21T12:56:57.518Z,5.10
2023-04-21T13:00:00.176Z,6.10
2023-04-21T13:03:02.516Z,4.90
2023-04-21T13:06:04.498Z,4.80
2023-04-21T13:09:06.831Z,5.60
2023-04-21T13:12:08.561Z,5.50
2023-04-21T13:15:10.993Z,5.50
2023-04-21T13:18:12.696Z,4.70
2023-04-21T13:21:14.582Z,4.80
2023-04-21T13:24:16.337Z,4.80
2023-04-21T13:27:18.043Z,4.70
2023-04-21T13:30:19.803Z,4.80
2023-04-21T13:33:21.750Z,5.30
2023-04-21T13:36:23.476Z,4.10
2023-04-21T13:39:25.820Z,5.30
2023-04-21T13:42:28.108Z,4.10
2023-04-21T13:45:29.944Z,6.10
2023-04-21T13:48:31.632Z,4.00
2023-04-21T13:51:33.366Z,6.10
2023-04-21T13:54:35.178Z,7.20
2023-04-21T13:57:37.479Z,4.40
2023-04-21T14:00:39.288Z,5.30
2023-04-21T14:03:41.331Z,4.60
2023-04-21T14:09:45.476Z,6.30
2023-04-21T14:12:48.477Z,6.00
2023-04-21T14:15:50.397Z,5.00
2023-04-21T14:18:52.529Z,4.10
2023-04-21T14:24:55.807Z,3.90
2023-04-21T14:27:58.228Z,4.40
2023-04-21T14:31:00.060Z,4.20
2023-04-21T14:34:01.815Z,4.30
2023-04-21T14:37:03.578Z,6.10
2023-04-21T14:40:07.433Z,4.40
2023-04-21T14:43:10.781Z,7.50
2023-04-21T14:46:12.617Z,4.20
2023-04-21T14:49:14.490Z,5.20
2023-04-21T14:52:16.256Z,3.90
2023-04-21T14:55:18.052Z,4.90
2023-04-21T14:58:19.877Z,4.90
2023-04-21T15:01:23.826Z,3.90
2023-04-21T15:04:27.302Z,3.50
2023-04-21T15:07:29.239Z,4.00
2023-04-21T15:10:31.768Z,7.30
2023-04-21T15:13:33.657Z,5.30
2023-04-21T15:16:35.484Z,4.90
2023-04-21T15:19:37.460Z,5.50
2023-04-21T15:25:42.010Z,5.20
2023-04-21T15:28:43.845Z,3.40
2023-04-21T15:31:45.663Z,6.10
2023-04-21T15:34:48.458Z,3.40
2023-04-21T15:37:50.278Z,6.20
2023-04-21T15:41:00.607Z,4.20
2023-04-21T15:44:03.368Z,5.80
2023-04-21T15:47:05.904Z,5.60
2023-04-21T15:50:08.131Z,6.30
2023-04-21T15:56:11.806Z,4.00
2023-04-21T15:59:13.800Z,3.60
2023-04-21T16:02:15.821Z,5.80
2023-04-21T16:08:21.061Z,2.90
2023-04-21T16:11:24.998Z,7.50
2023-04-21T16:14:27.400Z,6.30
2023-04-21T16:17:31.341Z,4.80
2023-04-21T16:20:33.367Z,5.50
2023-04-21T16:26:37.484Z,4.70
2023-04-21T16:29:39.382Z,4.40
2023-04-21T16:32:41.284Z,3.20
2023-04-21T16:35:43.349Z,3.90
2023-04-21T16:41:47.260Z,3.20
2023-04-21T16:44:50.197Z,5.10
2023-04-21T16:47:52.157Z,7.50
2023-04-21T16:50:53.941Z,5.70
2023-04-21T16:53:56.050Z,5.70
2023-04-21T16:56:58.042Z,4.00
2023-04-21T17:00:00.819Z,7.60
2023-04-21T17:03:02.717Z,5.80
2023-04-21T17:06:08.891Z,4.00
2023-04-21T17:09:10.714Z,3.60
2023-04-21T17:12:12.556Z,4.60
2023-04-21T17:15:14.763Z,4.10
2023-04-21T17:18:16.669Z,5.30
2023-04-21T17:21:18.396Z,6.00
2023-04-21T17:24:20.410Z,3.40
2023-04-21T17:27:22.127Z,4.00
2023-04-21T17:30:23.951Z,5.20
2023-04-21T17:33:25.685Z,3.50
2023-04-21T17:36:31.042Z,2.70
2023-04-21T17:39:32.934Z,6.00
2023-04-21T17:42:34.672Z,5.30
2023-04-21T17:45:38.190Z,5.10
2023-04-21T17:48:39.976Z,5.20
2023-04-21T17:51:41.689Z,3.40
2023-04-21T17:54:43.428Z,5.30
2023-04-21T17:57:45.163Z,7.70
2023-04-21T18:00:46.921Z,4.20
2023-04-21T18:03:48.805Z,4.60
2023-04-21T18:06:51.395Z,7.80
2023-04-21T18:09:53.118Z,4.50
2023-04-21T18:12:54.785Z,4.10
2023-04-21T18:15:57.126Z,7.80
2023-04-21T18:18:58.864Z,5.50
2023-04-21T18:22:00.734Z,5.50
2023-04-21T18:25:02.709Z,6.80
2023-04-21T18:28:04.497Z,6.20
2023-04-21T18:31:06.201Z,7.90
2023-04-21T18:34:08.436Z,8.40
2023-04-21T18:40:11.981Z,5.30
2023-04-21T18:43:15.174Z,5.90
2023-04-21T18:46:16.975Z,5.90
2023-04-21T18:49:18.694Z,4.40
2023-04-21T18:52:20.402Z,5.50
2023-04-21T18:55:22.120Z,6.00
2023-04-21T18:58:23.803Z,8.10
2023-04-21T19:01:26.205Z,7.40
2023-04-21T19:07:29.564Z,8.90
2023-04-21T19:10:33.889Z,6.90
2023-04-21T19:13:35.691Z,6.70
2023-04-21T19:16:37.527Z,5.80
2023-04-21T19:19:39.710Z,8.20
2023-04-21T19:22:41.422Z,8.20
2023-04-21T19:25:43.180Z,6.90
2023-04-21T19:28:44.933Z,8.20
2023-04-21T19:31:46.695Z,8.40
2023-04-21T19:34:48.482Z,6.50
2023-04-21T19:37:50.271Z,7.80
2023-04-21T19:40:52.035Z,7.70
2023-04-21T19:43:53.701Z,7.20
2023-04-21T19:46:55.621Z,8.00
2023-04-21T19:49:57.388Z,10.50
2023-04-21T19:52:59.069Z,6.50
2023-04-21T19:56:01.065Z,7.30
2023-04-21T19:59:04.765Z,9.30
2023-04-21T20:02:06.771Z,6.20
2023-04-21T20:05:09.607Z,11.30
2023-04-21T20:08:11.930Z,13.40
2023-04-21T20:14:16.266Z,10.10
2023-04-21T20:17:18.293Z,10.30
2023-04-21T20:20:20.141Z,10.00
2023-04-21T20:23:21.821Z,11.00
2023-04-21T20:26:23.475Z,8.40
2023-04-21T20:29:25.603Z,8.10
2023-04-21T20:32:27.332Z,9.10
2023-04-21T20:35:29.946Z,8.60
2023-04-21T20:38:33.822Z,12.00
2023-04-21T20:41:35.586Z,9.50
2023-04-21T20:44:38.056Z,9.60
2023-04-21T20:47:39.863Z,12.30
2023-04-21T20:50:42.775Z,8.20
2023-04-21T20:53:46.519Z,8.50
2023-04-21T20:56:48.504Z,8.80
2023-04-21T20:59:50.271Z,7.30
2023-04-21T21:02:52.075Z,10.10
2023-04-21T21:05:54.383Z,8.10
2023-04-21T21:08:56.014Z,7.90
2023-04-21T21:11:57.724Z,7.90
2023-04-21T21:14:59.538Z,9.10
2023-04-21T21:18:01.865Z,9.50
2023-04-21T21:21:06.037Z,7.20
2023-04-21T21:24:07.814Z,8.20
2023-04-21T21:27:10.065Z,9.50
2023-04-21T21:33:13.584Z,7.50
2023-04-21T21:36:15.349Z,8.80
2023-04-21T21:39:23.646Z,10.50
2023-04-21T21:42:25.800Z,10.30
2023-04-21T21:45:27.573Z,8.10
2023-04-21T21:48:29.357Z,11.00
2023-04-21T21:51:31.821Z,9.70
2023-04-21T21:54:33.525Z,10.30
2023-04-21T21:57:36.312Z,10.10
2023-04-21T22:00:39.512Z,9.70
2023-04-21T22:03:42.013Z,12.60
2023-04-21T22:12:48.230Z,12.40
2023-04-21T22:15:50.106Z,11.40
2023-04-21T22:18:51.823Z,11.80
2023-04-21T22:21:53.642Z,10.20
2023-04-21T22:24:55.396Z,11.00
2023-04-21T22:27:57.515Z,14.30
2023-04-21T22:30:59.400Z,13.50
2023-04-21T22:34:01.145Z,13.40
2023-04-21T22:37:04.984Z,15.20
2023-04-21T22:40:07.677Z,12.60
2023-04-21T22:43:09.524Z,12.70
2023-04-21T22:46:11.797Z,13.40
2023-04-21T22:49:13.691Z,12.10
2023-04-21T22:52:15.398Z,13.70
2023-04-21T22:55:17.306Z,13.30
2023-04-21T22:58:18.968Z,13.00
2023-04-21T23:01:20.996Z,14.10
2023-04-21T23:04:22.981Z,13.60
2023-04-21T23:07:25.133Z,16.20
2023-04-21T23:10:28.504Z,15.50
2023-04-21T23:13:32.243Z,12.50
2023-04-21T23:16:34.120Z,12.50
2023-04-21T23:19:36.094Z,15.10
2023-04-21T23:22:38.040Z,14.90
2023-04-21T23:25:39.762Z,15.40
2023-04-21T23:28:41.461Z,15.90
2023-04-21T23:31:44.120Z,13.20
2023-04-21T23:34:45.849Z,14.70
2023-04-21T23:37:48.143Z,16.80
2023-04-21T23:40:49.954Z,15.20
2023-04-21T23:43:51.590Z,14.90
2023-04-21T23:46:53.248Z,14.20
2023-04-21T23:49:54.937Z,12.50
2023-04-21T23:52:56.658Z,15.10
2023-04-21T23:55:58.412Z,14.20
2023-04-21T23:59:00.743Z,15.60
